createdAt,value
2023-02-16T00:01:20.608Z,85.30
2023-02-16T00:03:47.171Z,81.10
2023-02-16T00:06:13.780Z,84.30
2023-02-16T00:08:40.680Z,77.50
2023-02-16T00:11:18.914Z,76.30
2023-02-16T00:13:45.368Z,71.20
2023-02-16T00:16:19.554Z,75.90
2023-02-16T00:18:46.765Z,76.00
2023-02-16T00:21:13.549Z,77.10
2023-02-16T00:23:40.354Z,76.60
2023-02-16T00:26:22.463Z,78.20
2023-02-16T00:28:52.701Z,78.40
2023-02-16T00:31:22.075Z,81.60
2023-02-16T00:33:49.476Z,79.70
2023-02-16T00:36:16.035Z,74.90
2023-02-16T00:38:42.824Z,79.10
2023-02-16T00:41:17.236Z,77.50
2023-02-16T00:43:43.652Z,83.20
2023-02-16T00:46:10.385Z,78.20
2023-02-16T00:48:36.954Z,78.20
2023-02-16T00:51:11.130Z,79.00
2023-02-16T00:53:46.941Z,76.20
2023-02-16T00:56:20.161Z,74.20
2023-02-16T00:58:49.027Z,78.50
2023-02-16T01:01:18.103Z,72.30
2023-02-16T01:03:44.910Z,76.70
2023-02-16T01:06:12.063Z,74.30
2023-02-16T01:08:38.501Z,67.80
2023-02-16T01:11:07.637Z,71.00
2023-02-16T01:13:46.160Z,71.00
2023-02-16T01:16:27.856Z,67.60
2023-02-16T01:18:54.659Z,68.80
2023-02-16T01:21:22.124Z,66.00
2023-02-16T01:23:48.664Z,68.20
2023-02-16T01:26:19.772Z,66.60
2023-02-16T01:28:47.384Z,67.00
2023-02-16T01:31:14.990Z,64.00
2023-02-16T01:33:42.864Z,63.00
2023-02-16T01:36:43.367Z,63.20
2023-02-16T01:39:16.006Z,64.10
2023-02-16T01:41:49.333Z,63.80
2023-02-16T01:44:21.048Z,65.70
2023-02-16T01:47:04.451Z,65.50
2023-02-16T01:49:31.311Z,64.50
2023-02-16T01:52:37.973Z,64.70
2023-02-16T01:55:07.224Z,65.00
2023-02-16T01:57:59.610Z,67.90
2023-02-16T02:00:51.189Z,66.10
2023-02-16T02:03:21.244Z,66.80
2023-02-16T02:05:50.277Z,65.40
2023-02-16T02:08:25.837Z,66.10
2023-02-16T02:11:14.388Z,65.70
2023-02-16T02:13:47.497Z,66.70
2023-02-16T02:16:19.718Z,63.30
2023-02-16T02:18:46.784Z,65.20
2023-02-16T02:21:41.726Z,65.00
2023-02-16T02:24:23.480Z,65.60
2023-02-16T02:27:07.040Z,66.20
2023-02-16T02:30:01.802Z,63.00
2023-02-16T02:32:28.346Z,63.40
2023-02-16T02:35:25.443Z,61.80
2023-02-16T02:38:32.330Z,59.10
2023-02-16T02:41:32.966Z,55.10
2023-02-16T02:44:06.773Z,57.30
2023-02-16T02:46:35.735Z,58.30
2023-02-16T02:49:02.411Z,59.70
2023-02-16T02:51:29.097Z,61.50
2023-02-16T02:54:29.980Z,63.70
2023-02-16T02:57:02.777Z,57.00
2023-02-16T02:59:31.711Z,58.40
2023-02-16T03:02:01.386Z,57.20
2023-02-16T03:04:32.316Z,55.60
2023-02-16T03:07:01.574Z,58.00
2023-02-16T03:09:28.628Z,58.20
2023-02-16T03:11:57.491Z,53.80
2023-02-16T03:14:37.884Z,54.80
2023-02-16T03:17:10.742Z,56.00
2023-02-16T03:19:40.244Z,59.10
2023-02-16T03:22:06.719Z,55.70
2023-02-16T03:24:33.952Z,58.90
2023-02-16T03:27:02.197Z,60.30
2023-02-16T03:29:29.398Z,61.00
2023-02-16T03:31:57.322Z,57.10
2023-02-16T03:34:25.645Z,58.40
2023-02-16T03:36:56.520Z,59.20
2023-02-16T03:39:23.472Z,59.00
2023-02-16T03:41:52.223Z,61.90
2023-02-16T03:44:19.429Z,62.10
2023-02-16T03:46:46.517Z,62.10
2023-02-16T03:49:12.961Z,57.10
2023-02-16T03:51:39.401Z,61.70
2023-02-16T03:54:05.925Z,63.80
2023-02-16T03:56:32.584Z,64.80
2023-02-16T03:58:59.132Z,62.30
2023-02-16T04:01:26.756Z,63.40
2023-02-16T04:03:53.380Z,60.10
2023-02-16T04:06:20.089Z,64.50
2023-02-16T04:08:46.727Z,63.00
2023-02-16T04:11:13.772Z,63.50
2023-02-16T04:13:40.405Z,63.70
2023-02-16T04:16:07.497Z,61.60
2023-02-16T04:18:33.955Z,66.60
2023-02-16T04:21:00.671Z,63.40
2023-02-16T04:23:27.178Z,67.90
2023-02-16T04:25:53.834Z,69.50
2023-02-16T04:28:20.298Z,75.40
2023-02-16T04:30:46.912Z,86.10
2023-02-16T04:33:13.703Z,82.10
2023-02-16T04:35:40.516Z,73.40
2023-02-16T04:38:07.168Z,79.50
2023-02-16T04:40:33.712Z,75.60
2023-02-16T04:43:00.228Z,74.70
2023-02-16T04:45:26.799Z,74.10
2023-02-16T04:47:53.354Z,70.50
2023-02-16T04:50:20.173Z,67.00
2023-02-16T04:52:46.850Z,64.40
2023-02-16T04:55:13.324Z,65.30
2023-02-16T04:57:40.058Z,67.30
2023-02-16T05:00:09.712Z,67.90
2023-02-16T05:02:36.235Z,66.90
2023-02-16T05:05:02.886Z,64.00
2023-02-16T05:07:29.425Z,64.40
2023-02-16T05:09:56.590Z,65.20
2023-02-16T05:12:23.075Z,67.30
2023-02-16T05:14:49.888Z,69.00
2023-02-16T05:17:23.160Z,72.10
2023-02-16T05:19:53.216Z,68.70
2023-02-16T05:22:21.953Z,67.60
2023-02-16T05:24:49.549Z,67.00
2023-02-16T05:27:19.817Z,62.20
2023-02-16T05:29:46.454Z,61.40
2023-02-16T05:32:13.099Z,60.10
2023-02-16T05:34:40.004Z,62.10
2023-02-16T05:37:06.642Z,61.90
2023-02-16T05:39:33.805Z,61.80
2023-02-16T05:42:00.351Z,65.90
2023-02-16T05:44:27.090Z,65.50
2023-02-16T05:46:53.635Z,64.10
2023-02-16T05:49:20.247Z,60.00
2023-02-16T05:51:46.815Z,64.10
2023-02-16T05:54:14.376Z,63.50
2023-02-16T05:56:40.940Z,64.30
2023-02-16T05:59:07.407Z,61.80
2023-02-16T06:01:33.909Z,66.70
2023-02-16T06:04:00.473Z,65.10
2023-02-16T06:06:27.077Z,65.50
2023-02-16T06:08:53.569Z,60.80
2023-02-16T06:11:20.344Z,62.30
2023-02-16T06:13:46.798Z,65.00
2023-02-16T06:16:13.250Z,64.50
2023-02-16T06:18:39.764Z,64.50
2023-02-16T06:21:06.463Z,68.30
2023-02-16T06:23:32.991Z,72.10
2023-02-16T06:25:59.706Z,68.10
2023-02-16T06:28:26.570Z,72.30
2023-02-16T06:30:53.220Z,69.90
2023-02-16T06:33:19.836Z,69.60
2023-02-16T06:35:46.412Z,66.70
2023-02-16T06:38:13.021Z,71.70
2023-02-16T06:40:39.586Z,66.80
2023-02-16T06:43:06.192Z,67.90
2023-02-16T06:45:32.608Z,64.30
2023-02-16T06:47:59.175Z,61.10
2023-02-16T06:50:25.723Z,62.20
2023-02-16T06:52:52.424Z,62.50
2023-02-16T06:55:18.903Z,60.20
2023-02-16T06:57:45.361Z,59.10
2023-02-16T07:00:12.610Z,58.80
2023-02-16T07:02:39.091Z,61.20
2023-02-16T07:05:05.728Z,71.10
2023-02-16T07:07:32.177Z,64.10
2023-02-16T07:10:00.296Z,61.40
2023-02-16T07:12:27.047Z,58.80
2023-02-16T07:14:53.587Z,55.10
2023-02-16T07:17:20.529Z,51.80
2023-02-16T07:19:47.072Z,51.80
2023-02-16T07:22:13.616Z,46.80
2023-02-16T07:24:40.055Z,48.30
2023-02-16T07:27:06.804Z,42.00
2023-02-16T07:29:33.480Z,45.00
2023-02-16T07:32:00.040Z,38.50
2023-02-16T07:34:26.653Z,38.20
2023-02-16T07:36:53.242Z,38.20
2023-02-16T07:39:19.711Z,38.30
2023-02-16T07:41:46.249Z,38.80
2023-02-16T07:44:12.889Z,38.80
2023-02-16T07:46:39.531Z,38.40
2023-02-16T07:49:06.174Z,38.70
2023-02-16T07:51:32.657Z,39.00
2023-02-16T07:54:00.833Z,36.70
2023-02-16T07:56:29.994Z,38.20
2023-02-16T07:58:58.750Z,34.10
2023-02-16T08:01:25.375Z,33.20
2023-02-16T08:03:52.360Z,35.90
2023-02-16T08:06:19.845Z,35.00
2023-02-16T08:08:46.421Z,33.30
2023-02-16T08:11:16.221Z,34.50
2023-02-16T08:13:44.736Z,35.60
2023-02-16T08:16:16.410Z,33.40
2023-02-16T08:18:42.981Z,33.90
2023-02-16T08:21:15.793Z,35.70
2023-02-16T08:23:54.740Z,34.40
2023-02-16T08:26:23.459Z,34.50
2023-02-16T08:28:50.343Z,34.90
2023-02-16T08:31:19.752Z,34.10
2023-02-16T08:33:47.359Z,33.80
2023-02-16T08:36:34.674Z,34.20
2023-02-16T08:39:03.765Z,34.10
2023-02-16T08:41:33.734Z,33.40
2023-02-16T08:44:01.400Z,32.20
2023-02-16T08:46:29.748Z,32.50
2023-02-16T08:48:57.044Z,33.10
2023-02-16T08:51:24.137Z,33.40
2023-02-16T08:53:53.828Z,32.10
2023-02-16T08:56:20.258Z,31.10
2023-02-16T08:58:47.430Z,32.00
2023-02-16T09:01:15.137Z,30.10
2023-02-16T09:03:43.168Z,31.40
2023-02-16T09:06:11.638Z,30.10
2023-02-16T09:08:38.978Z,29.00
2023-02-16T09:11:13.402Z,29.40
2023-02-16T09:13:40.761Z,27.20
2023-02-16T09:16:21.620Z,27.50
2023-02-16T09:18:49.119Z,22.40
2023-02-16T09:21:19.070Z,22.30
2023-02-16T09:23:47.678Z,22.20
2023-02-16T09:26:24.714Z,21.80
2023-02-16T09:28:53.514Z,22.40
2023-02-16T09:31:28.158Z,20.70
2023-02-16T09:33:58.207Z,20.60
2023-02-16T09:36:25.247Z,18.30
2023-02-16T09:38:52.552Z,17.60
2023-02-16T09:41:21.945Z,17.20
2023-02-16T09:44:12.882Z,19.20
2023-02-16T09:46:41.880Z,20.20
2023-02-16T09:49:36.226Z,20.50
2023-02-16T09:52:16.755Z,20.40
2023-02-16T09:54:52.186Z,20.90
2023-02-16T09:57:53.919Z,20.80
2023-02-16T10:00:32.348Z,20.50
2023-02-16T10:03:17.544Z,20.40
2023-02-16T10:06:05.675Z,21.60
2023-02-16T10:08:41.284Z,23.70
2023-02-16T10:11:30.190Z,23.60
2023-02-16T10:14:04.210Z,22.90
2023-02-16T10:16:39.068Z,23.10
2023-02-16T10:19:18.617Z,23.50
2023-02-16T10:21:50.075Z,22.10
2023-02-16T10:24:17.123Z,23.80
2023-02-16T10:26:51.996Z,21.10
2023-02-16T10:29:20.683Z,20.00
2023-02-16T10:31:59.846Z,21.00
2023-02-16T10:34:43.309Z,21.20
2023-02-16T10:37:40.778Z,23.10
2023-02-16T10:40:55.042Z,20.00
2023-02-16T10:43:34.108Z,18.60
2023-02-16T10:46:01.635Z,19.70
2023-02-16T10:48:28.819Z,15.70
2023-02-16T10:51:03.913Z,15.20
2023-02-16T10:53:41.736Z,15.20
2023-02-16T10:56:32.385Z,15.80
2023-02-16T10:59:00.653Z,15.00
2023-02-16T11:01:38.039Z,14.60
2023-02-16T11:04:05.433Z,17.90
2023-02-16T11:06:32.019Z,14.40
2023-02-16T11:09:01.383Z,12.40
2023-02-16T11:11:30.669Z,14.80
2023-02-16T11:14:03.591Z,13.00
2023-02-16T11:16:31.421Z,16.50
2023-02-16T11:19:09.220Z,15.70
2023-02-16T11:21:54.232Z,13.90
2023-02-16T11:24:30.091Z,15.20
2023-02-16T11:27:06.319Z,11.50
2023-02-16T11:29:33.844Z,11.80
2023-02-16T11:32:06.748Z,11.20
2023-02-16T11:34:36.983Z,11.60
2023-02-16T11:37:14.016Z,12.30
2023-02-16T11:39:52.366Z,13.00
2023-02-16T11:42:24.808Z,12.80
2023-02-16T11:44:54.711Z,12.10
2023-02-16T11:47:34.937Z,11.60
2023-02-16T11:50:21.375Z,11.00
2023-02-16T11:52:49.820Z,12.20
2023-02-16T11:55:34.485Z,12.00
2023-02-16T11:58:33.539Z,12.60
2023-02-16T12:01:08.885Z,12.80
2023-02-16T12:04:17.003Z,13.30
2023-02-16T12:07:13.137Z,13.30
2023-02-16T12:10:00.854Z,12.90
2023-02-16T12:12:40.304Z,13.20
2023-02-16T12:15:15.649Z,13.20
2023-02-16T12:18:00.773Z,13.80
2023-02-16T12:20:55.520Z,14.20
2023-02-16T12:23:24.895Z,14.00
2023-02-16T12:26:36.845Z,13.80
2023-02-16T12:29:14.451Z,13.70
2023-02-16T12:32:15.180Z,14.40
2023-02-16T12:35:26.162Z,14.20
2023-02-16T12:38:17.546Z,14.80
2023-02-16T12:43:47.358Z,12.80
2023-02-16T12:46:27.427Z,12.90
2023-02-16T12:49:00.109Z,13.70
2023-02-16T12:51:48.003Z,14.30
2023-02-16T12:54:21.090Z,13.00
2023-02-16T12:56:59.414Z,14.90
2023-02-16T12:59:47.511Z,12.30
2023-02-16T13:02:37.253Z,13.80
2023-02-16T13:05:31.642Z,13.10
2023-02-16T13:08:06.674Z,11.50
2023-02-16T13:10:57.705Z,11.50
2023-02-16T13:13:27.723Z,13.30
2023-02-16T13:16:20.435Z,13.00
2023-02-16T13:18:55.959Z,11.90
2023-02-16T13:21:50.528Z,12.70
2023-02-16T13:24:31.935Z,13.00
2023-02-16T13:27:18.080Z,13.30
2023-02-16T13:29:53.745Z,12.90
2023-02-16T13:32:37.315Z,13.10
2023-02-16T13:35:41.850Z,12.50
2023-02-16T13:38:46.208Z,11.80
2023-02-16T13:41:27.843Z,13.30
2023-02-16T13:43:58.298Z,12.50
2023-02-16T13:46:24.775Z,12.80
2023-02-16T13:48:52.232Z,13.70
2023-02-16T13:51:22.197Z,12.70
2023-02-16T13:53:51.725Z,12.60
2023-02-16T13:56:37.432Z,13.20
2023-02-16T13:59:19.210Z,14.70
2023-02-16T14:01:48.150Z,14.10
2023-02-16T14:04:23.831Z,14.10
2023-02-16T14:06:51.325Z,15.70
2023-02-16T14:09:17.774Z,14.70
2023-02-16T14:12:09.234Z,14.70
2023-02-16T14:17:19.337Z,14.70
2023-02-16T14:20:00.666Z,15.40
2023-02-16T14:25:37.153Z,15.10
2023-02-16T14:28:22.087Z,15.70
2023-02-16T14:30:53.283Z,14.90
2023-02-16T14:35:58.443Z,16.10
2023-02-16T14:38:34.550Z,16.00
2023-02-16T14:41:04.327Z,16.50
2023-02-16T14:43:33.247Z,18.00
2023-02-16T14:46:18.731Z,18.10
2023-02-16T14:49:07.349Z,18.00
2023-02-16T14:51:36.532Z,18.30
2023-02-16T14:54:21.364Z,18.20
2023-02-16T14:56:54.778Z,18.30
2023-02-16T14:59:33.967Z,19.40
2023-02-16T15:02:00.929Z,18.50
2023-02-16T15:04:32.771Z,19.80
2023-02-16T15:07:03.854Z,18.10
2023-02-16T15:09:33.740Z,19.90
2023-02-16T15:12:05.653Z,19.80
2023-02-16T15:14:37.639Z,20.10
2023-02-16T15:17:07.571Z,21.10
2023-02-16T15:19:35.150Z,22.00
2023-02-16T15:22:19.416Z,21.10
2023-02-16T15:24:55.784Z,22.80
2023-02-16T15:27:24.185Z,22.20
2023-02-16T15:30:20.683Z,23.30
2023-02-16T15:32:57.208Z,23.30
2023-02-16T15:35:37.658Z,24.20
2023-02-16T15:38:13.606Z,23.50
2023-02-16T15:40:40.376Z,23.40
2023-02-16T15:43:17.436Z,25.70
2023-02-16T15:45:49.395Z,25.00
2023-02-16T15:48:37.102Z,26.80
2023-02-16T15:51:25.039Z,25.70
2023-02-16T15:54:03.927Z,25.50
2023-02-16T15:56:48.485Z,27.50
2023-02-16T15:59:43.483Z,26.90
2023-02-16T16:02:17.943Z,35.60
2023-02-16T16:04:57.769Z,137.00
2023-02-16T16:07:37.733Z,72.00
2023-02-16T16:10:16.936Z,56.90
2023-02-16T16:12:44.831Z,65.90
2023-02-16T16:15:19.629Z,73.20
2023-02-16T16:17:46.401Z,62.90
2023-02-16T16:20:27.945Z,40.80
2023-02-16T16:25:34.308Z,40.40
2023-02-16T16:28:02.367Z,39.70
2023-02-16T16:30:32.985Z,38.70
2023-02-16T16:33:08.438Z,30.90
2023-02-16T16:35:49.759Z,38.40
2023-02-16T16:38:33.831Z,37.60
2023-02-16T16:41:03.673Z,38.50
2023-02-16T16:43:37.845Z,36.00
2023-02-16T16:46:20.528Z,36.00
2023-02-16T16:48:50.074Z,147.50
2023-02-16T16:51:18.541Z,127.40
2023-02-16T16:53:50.700Z,265.60
2023-02-16T16:56:17.652Z,105.20
2023-02-16T16:58:47.782Z,132.60
2023-02-16T17:01:14.529Z,127.90
2023-02-16T17:03:41.272Z,136.00
2023-02-16T17:06:07.721Z,124.30
2023-02-16T17:08:36.337Z,476.40
2023-02-16T17:11:04.529Z,294.50
2023-02-16T17:13:31.936Z,280.00
2023-02-16T17:16:07.455Z,111.10
2023-02-16T17:18:34.757Z,125.60
2023-02-16T17:21:01.270Z,111.20
2023-02-16T17:23:27.911Z,97.80
2023-02-16T17:25:54.374Z,95.30
2023-02-16T17:28:21.509Z,88.80
2023-02-16T17:30:48.089Z,95.00
2023-02-16T17:33:14.784Z,100.30
2023-02-16T17:35:43.474Z,100.10
2023-02-16T17:38:14.027Z,97.40
2023-02-16T17:40:40.727Z,91.70
2023-02-16T17:43:12.635Z,83.90
2023-02-16T17:45:39.701Z,85.90
2023-02-16T17:48:07.127Z,98.80
2023-02-16T17:50:33.964Z,90.20
2023-02-16T17:53:00.435Z,96.50
2023-02-16T17:55:27.367Z,97.40
2023-02-16T17:57:53.865Z,83.90
2023-02-16T18:00:21.648Z,95.30
2023-02-16T18:02:48.205Z,99.00
2023-02-16T18:05:15.356Z,99.70
2023-02-16T18:07:42.309Z,109.90
2023-02-16T18:10:16.267Z,88.60
2023-02-16T18:12:43.164Z,88.50
2023-02-16T18:15:10.317Z,82.40
2023-02-16T18:17:37.059Z,87.20
2023-02-16T18:20:04.568Z,83.40
2023-02-16T18:22:31.072Z,81.60
2023-02-16T18:24:57.597Z,76.70
2023-02-16T18:27:24.045Z,76.70
2023-02-16T18:29:51.409Z,97.90
2023-02-16T18:32:17.959Z,110.00
2023-02-16T18:34:45.225Z,136.20
2023-02-16T18:37:11.936Z,104.70
2023-02-16T18:39:38.679Z,112.20
2023-02-16T18:42:05.222Z,139.60
2023-02-16T18:44:34.464Z,156.00
2023-02-16T18:47:01.483Z,177.50
2023-02-16T18:49:28.637Z,175.90
2023-02-16T18:51:55.234Z,177.40
2023-02-16T18:54:21.767Z,189.20
2023-02-16T18:56:49.887Z,150.60
2023-02-16T18:59:16.362Z,126.60
2023-02-16T19:01:43.210Z,125.80
2023-02-16T19:04:10.244Z,135.90
2023-02-16T19:06:37.275Z,137.60
2023-02-16T19:09:04.750Z,129.10
2023-02-16T19:11:31.789Z,121.90
2023-02-16T19:13:58.246Z,102.90
2023-02-16T19:16:24.917Z,123.10
2023-02-16T19:18:52.014Z,103.20
2023-02-16T19:21:18.863Z,126.80
2023-02-16T19:23:45.636Z,131.00
2023-02-16T19:26:16.620Z,160.80
2023-02-16T19:28:43.703Z,183.50
2023-02-16T19:31:21.171Z,189.60
2023-02-16T19:33:48.309Z,181.00
2023-02-16T19:36:15.909Z,186.20
2023-02-16T19:38:43.687Z,198.70
2023-02-16T19:41:12.105Z,205.10
2023-02-16T19:43:38.723Z,212.60
2023-02-16T19:46:06.308Z,210.20
2023-02-16T19:48:33.648Z,195.00
2023-02-16T19:51:01.737Z,199.30
2023-02-16T19:53:30.189Z,195.20
2023-02-16T19:55:56.908Z,195.30
2023-02-16T19:58:24.899Z,204.20
2023-02-16T20:00:52.464Z,214.50
2023-02-16T20:03:19.189Z,233.40
2023-02-16T20:05:45.751Z,213.40
2023-02-16T20:08:12.360Z,199.70
2023-02-16T20:10:44.984Z,195.30
2023-02-16T20:13:15.394Z,205.90
2023-02-16T20:15:42.311Z,206.30
2023-02-16T20:18:08.796Z,204.80
2023-02-16T20:20:36.037Z,205.00
2023-02-16T20:23:02.988Z,187.10
2023-02-16T20:25:29.831Z,194.10
2023-02-16T20:27:57.214Z,204.70
2023-02-16T20:30:24.057Z,199.60
2023-02-16T20:32:50.762Z,217.20
2023-02-16T20:35:17.553Z,214.30
2023-02-16T20:37:44.068Z,223.10
2023-02-16T20:40:11.324Z,182.90
2023-02-16T20:42:37.987Z,204.20
2023-02-16T20:45:05.000Z,197.50
2023-02-16T20:47:32.983Z,213.90
2023-02-16T20:49:59.836Z,187.70
2023-02-16T20:52:26.577Z,179.30
2023-02-16T20:54:53.030Z,185.40
2023-02-16T20:57:26.861Z,184.80
2023-02-16T20:59:55.104Z,212.00
2023-02-16T21:02:21.707Z,185.20
2023-02-16T21:04:48.194Z,169.10
2023-02-16T21:07:14.597Z,164.70
2023-02-16T21:09:41.081Z,176.90
2023-02-16T21:12:07.582Z,186.00
2023-02-16T21:14:34.517Z,173.20
2023-02-16T21:17:01.178Z,165.00
2023-02-16T21:19:27.821Z,164.40
2023-02-16T21:21:54.564Z,157.90
2023-02-16T21:24:21.188Z,189.30
2023-02-16T21:26:47.801Z,241.90
2023-02-16T21:29:14.574Z,217.10
2023-02-16T21:31:41.188Z,215.30
2023-02-16T21:34:07.777Z,206.30
2023-02-16T21:36:34.316Z,202.70
2023-02-16T21:39:02.889Z,183.50
2023-02-16T21:41:30.169Z,179.00
2023-02-16T21:44:10.541Z,167.90
2023-02-16T21:46:42.320Z,165.10
2023-02-16T21:49:14.469Z,162.40
2023-02-16T21:51:42.631Z,171.80
2023-02-16T21:54:13.819Z,154.10
2023-02-16T21:59:12.922Z,155.00
2023-02-16T22:01:44.853Z,144.20
2023-02-16T22:04:13.216Z,158.90
2023-02-16T22:06:42.681Z,167.60
2023-02-16T22:09:12.966Z,172.60
2023-02-16T22:11:39.967Z,162.20
2023-02-16T22:14:06.939Z,162.20
2023-02-16T22:16:35.669Z,156.00
2023-02-16T22:19:07.292Z,143.20
2023-02-16T22:21:39.378Z,146.60
2023-02-16T22:24:07.717Z,152.20
2023-02-16T22:26:35.699Z,137.90
2023-02-16T22:29:06.990Z,141.30
2023-02-16T22:31:35.275Z,145.90
2023-02-16T22:34:07.536Z,141.70
2023-02-16T22:36:36.051Z,134.30
2023-02-16T22:39:02.611Z,135.30
2023-02-16T22:41:29.107Z,133.20
2023-02-16T22:43:56.629Z,127.60
2023-02-16T22:46:24.220Z,135.40
2023-02-16T22:48:51.742Z,133.90
2023-02-16T22:51:20.124Z,133.40
2023-02-16T22:53:46.969Z,145.40
2023-02-16T22:56:16.269Z,133.60
2023-02-16T22:58:43.290Z,136.20
2023-02-16T23:01:15.663Z,130.80
2023-02-16T23:03:43.206Z,138.10
2023-02-16T23:06:17.278Z,141.60
2023-02-16T23:08:45.468Z,151.70
2023-02-16T23:11:12.622Z,148.00
2023-02-16T23:13:39.154Z,156.00
2023-02-16T23:16:08.819Z,143.20
2023-02-16T23:18:35.760Z,118.70
2023-02-16T23:21:20.675Z,122.00
2023-02-16T23:23:48.896Z,144.10
2023-02-16T23:26:16.432Z,146.10
2023-02-16T23:28:44.314Z,147.30
2023-02-16T23:31:12.099Z,137.50
2023-02-16T23:33:39.416Z,154.60
2023-02-16T23:36:06.593Z,146.50
2023-02-16T23:38:33.845Z,143.30
2023-02-16T23:41:03.873Z,132.80
2023-02-16T23:43:31.319Z,124.80
2023-02-16T23:45:58.914Z,125.80
2023-02-16T23:48:26.448Z,127.10
2023-02-16T23:50:55.540Z,127.90
2023-02-16T23:53:24.263Z,128.30
2023-02-16T23:56:14.435Z,124.10
2023-02-16T23:58:42.788Z,113.20
